Data for 03/02/2016

Time Sea-Level Adjusted Pressure Absolute Pressure Temperature Relative Humidity Dew Point   
(mb) (inHg) (mb) (inHg) (C) (F) (%) (C) (F)
00:05 1011 29.85 840 24.81 7.7 45.8 37 -6 21.2
00:10 1011 29.85 840 24.81 7.7 45.8 37 -6.1 21
00:15 1011 29.85 840 24.81 7.7 45.9 37 -6.2 20.9
00:20 1011 29.85 840 24.81 7.8 46 37 -6.1 21
00:25 1011 29.85 840 24.81 7.7 45.8 37 -6.2 20.8
00:30 1011 29.85 840 24.81 7.6 45.8 36 -6.4 20.5
00:35 1011 29.85 840 24.81 7.8 46 36 -6.5 20.3
00:40 1011 29.85 840 24.81 7.8 46 36 -6.5 20.3
00:45 1011 29.85 840 24.81 7.8 46.1 35 -6.7 19.9
00:50 1011 29.85 840 24.81 7.8 46 37 -6.1 21.1
00:55 1011 29.85 840 24.81 7.4 45.2 38 -5.9 21.3
01:00 1011 29.85 840 24.81 7.1 44.7 40 -5.7 21.7
01:05 1011 29.85 840 24.81 6.8 44.2 40 -5.8 21.6
01:10 1010 29.83 840 24.81 6.6 43.9 41 -5.8 21.5
01:15 1010 29.83 840 24.81 6.7 44.1 40 -5.9 21.3
01:20 1010 29.83 840 24.81 6.8 44.3 38 -6.3 20.6
01:25 1010 29.83 839 24.78 7.2 45 37 -6.5 20.3
01:30 1010 29.83 839 24.78 7.9 46.2 35 -6.7 19.9
01:35 1010 29.83 839 24.78 7.9 46.3 34 -6.9 19.5
01:40 1010 29.83 839 24.78 8 46.4 34 -6.8 19.8
01:45 1010 29.83 839 24.78 8 46.5 35 -6.5 20.3
01:50 1010 29.83 839 24.78 7.9 46.2 35 -6.6 20.2
01:55 1010 29.83 839 24.78 7.9 46.2 35 -6.7 19.9
02:00 1010 29.83 839 24.78 8 46.3 35 -6.6 20.1
02:05 1010 29.83 839 24.78 8 46.4 34 -6.7 19.9
02:10 1010 29.83 839 24.78 8 46.3 36 -6.2 20.8
02:15 1010 29.83 839 24.78 7.6 45.6 37 -6.2 20.9
02:20 1010 29.83 839 24.78 7.3 45.2 37 -6.3 20.6
02:25 1010 29.83 839 24.78 7.3 45.1 38 -6.1 21.1
02:30 1010 29.83 840 24.81 7.2 44.9 38 -6.1 21
02:35 1010 29.83 840 24.81 7.2 44.9 37 -6.4 20.5
02:40 1011 29.85 840 24.81 7.3 45.1 38 -6.1 21.1
02:45 1011 29.85 840 24.81 7.2 44.9 39 -6 21.2
02:50 1011 29.85 840 24.81 7.2 44.9 39 -6 21.3
02:55 1011 29.85 840 24.81 7.1 44.7 38 -6.2 20.9
03:00 1011 29.85 840 24.81 7.2 45 38 -6.2 20.9
03:05 1011 29.85 840 24.81 7.2 45 39 -5.9 21.4
03:10 1010 29.83 840 24.81 7.1 44.9 38 -6.1 21
03:15 1010 29.83 840 24.81 7.2 45 38 -6.3 20.7
03:20 1010 29.83 840 24.81 7.3 45.1 37 -6.4 20.4
03:25 1010 29.83 840 24.81 7.2 45 37 -6.5 20.3
03:30 1010 29.83 839 24.78 6.9 44.5 39 -6.1 21
03:35 1010 29.83 839 24.78 6.6 44 40 -6 21.2
03:40 1010 29.83 839 24.78 6.6 43.8 38 -6.7 19.9
03:45 1010 29.83 839 24.78 7.3 45.1 33 -7.9 17.8
03:50 1010 29.83 839 24.78 7.9 46.3 33 -7.5 18.5
03:55 1010 29.83 839 24.78 7.7 45.8 34 -7.1 19.2
04:00 1010 29.83 839 24.78 7.4 45.2 35 -7.2 19.1
04:05 1010 29.83 839 24.78 7.2 44.9 35 -7.3 18.9
04:10 1010 29.83 839 24.78 7 44.6 36 -7.1 19.1
04:15 1010 29.83 839 24.78 6.8 44.3 36 -7.3 18.9
04:20 1010 29.83 839 24.78 6.8 44.3 36 -7.4 18.7
04:25 1010 29.83 839 24.78 6.9 44.3 35 -7.6 18.4
04:30 1010 29.83 839 24.78 7.1 44.7 34 -7.6 18.3
04:35 1010 29.83 839 24.78 7.2 44.9 34 -7.8 18
04:40 1010 29.83 839 24.78 7.3 45.1 33 -7.9 17.8
04:45 1011 29.85 840 24.81 6.8 44.3 49 -3 26.5
04:50 1012 29.88 841 24.83 3.6 38.4 64 -2.6 27.4
04:55 1012 29.88 841 24.83 2.2 35.9 72 -2.4 27.7
05:00 1012 29.88 842 24.86 1.6 34.8 75 -2.4 27.8
05:05 1013 29.91 842 24.86 1.3 34.3 77 -2.3 27.8
05:10 1013 29.91 842 24.86 1 33.7 79 -2.3 27.8
05:15 1013 29.91 842 24.86 0.7 33.3 81 -2.2 28
05:20 1013 29.91 842 24.86 0.4 32.7 84 -2 28.5
05:25 1013 29.91 843 24.89 0.1 32.2 87 -1.8 28.8
05:30 1014 29.94 843 24.89 -0.1 31.8 90 -1.6 29.1
05:35 1014 29.94 843 24.89 -0.3 31.4 91 -1.6 29.2
05:40 1014 29.94 843 24.89 -0.5 31.2 92 -1.6 29.1
05:45 1014 29.94 843 24.89 -0.5 31 93 -1.6 29.1
05:50 1014 29.94 843 24.89 -0.6 31 93 -1.6 29.1
05:55 1014 29.94 844 24.92 -0.6 30.9 93 -1.6 29
06:00 1015 29.97 844 24.92 -0.7 30.8 93 -1.7 29
06:05 1015 29.97 844 24.92 -0.8 30.6 93 -1.7 28.9
06:10 1015 29.97 844 24.92 -0.8 30.6 93 -1.8 28.8
06:15 1015 29.97 844 24.92 -0.8 30.6 93 -1.8 28.8
06:20 1015 29.97 844 24.92 -0.8 30.5 92 -1.9 28.6
06:25 1015 29.97 844 24.92 -0.8 30.6 91 -2.1 28.2
06:30 1015 29.97 844 24.92 -0.7 30.8 88 -2.5 27.6
06:35 1015 29.97 844 24.92 -0.5 31.1 87 -2.4 27.7
06:40 1015 29.97 844 24.92 -0.4 31.2 84 -2.8 26.9
06:45 1015 29.97 844 24.92 -0.3 31.5 82 -3 26.6
06:50 1015 29.97 844 24.92 -0.1 31.8 78 -3.5 25.8
06:55 1015 29.97 844 24.92 0 32 75 -3.9 25
07:00 1015 29.97 844 24.92 0.2 32.3 74 -3.9 25
07:05 1015 29.97 844 24.92 0.2 32.3 76 -3.7 25.4
07:10 1014 29.94 844 24.92 0.1 32.1 77 -3.5 25.7
07:15 1014 29.94 844 24.92 0 32.1 73 -4.2 24.4
07:20 1014 29.94 843 24.89 0.3 32.5 71 -4.5 24
07:25 1014 29.94 843 24.89 0.6 33.1 68 -4.6 23.6
07:30 1014 29.94 843 24.89 0.7 33.3 66 -5 23
07:35 1014 29.94 843 24.89 0.9 33.5 64 -5.2 22.6
07:40 1014 29.94 843 24.89 1 33.8 63 -5.2 22.6
07:45 1014 29.94 843 24.89 1 33.8 60 -5.9 21.4
07:50 1014 29.94 843 24.89 1.1 34 57 -6.4 20.5
07:55 1014 29.94 843 24.89 1.2 34.1 56 -6.7 20
08:00 1014 29.94 843 24.89 1.1 34 57 -6.6 20.2
08:05 1014 29.94 843 24.89 1.1 33.9 61 -5.6 21.8
08:10 1014 29.94 843 24.89 0.8 33.5 62 -5.5 22.1
08:15 1014 29.94 843 24.89 0.9 33.6 61 -5.7 21.7
08:20 1014 29.94 843 24.89 1 33.8 61 -5.7 21.7
08:25 1014 29.94 844 24.92 1.1 33.9 61 -5.5 22.1
08:30 1014 29.94 844 24.92 0.9 33.7 66 -4.8 23.4
08:35 1014 29.94 844 24.92 0.2 32.3 69 -4.9 23.2
08:40 1014 29.94 844 24.92 0.1 32.2 69 -4.8 23.3
08:45 1014 29.94 844 24.92 0.8 33.4 65 -5.2 22.7
08:50 1015 29.97 844 24.92 1.2 34.2 63 -5 23
08:55 1015 29.97 844 24.92 2 35.5 59 -5.3 22.5
09:00 1015 29.97 844 24.92 2 35.6 61 -4.7 23.5
09:05 1015 29.97 844 24.92 1.9 35.4 60 -5 23.1
09:10 1015 29.97 844 24.92 2.3 36.2 58 -5 23
09:15 1015 29.97 844 24.92 2.6 36.6 57 -5.2 22.6
09:20 1015 29.97 844 24.92 2.6 36.6 57 -5 23
09:25 1015 29.97 844 24.92 2.5 36.5 56 -5.4 22.3
09:30 1015 29.97 844 24.92 2.6 36.8 55 -5.6 21.9
09:35 1014 29.94 844 24.92 3 37.3 55 -5.1 22.8
09:40 1014 29.94 844 24.92 3 37.3 55 -5.2 22.7
09:45 1015 29.97 844 24.92 2.9 37.2 55 -5.4 22.3
09:50 1015 29.97 844 24.92 2.5 36.6 55 -5.6 21.9
09:55 1014 29.94 844 24.92 2.7 36.8 53 -6.1 21.1
10:00 1014 29.94 844 24.92 2.8 37.1 53 -5.8 21.6
10:05 1015 29.97 844 24.92 3.1 37.5 54 -5.4 22.3
10:10 1015 29.97 844 24.92 3.1 37.6 51 -5.9 21.3
10:15 1015 29.97 844 24.92 3 37.3 54 -5.5 22.2
10:20 1015 29.97 844 24.92 2.8 37 55 -5.4 22.2
10:25 1015 29.97 844 24.92 2.3 36.1 54 -6 21.2
10:30 1015 29.97 844 24.92 2.1 35.8 54 -6.2 20.8
10:35 1015 29.97 844 24.92 2 35.7 54 -6.2 20.8
10:40 1015 29.97 844 24.92 2.4 36.3 54 -6.1 21.1
10:45 1015 29.97 844 24.92 2.6 36.7 53 -5.9 21.3
10:50 1015 29.97 844 24.92 2.7 36.9 53 -5.8 21.5
10:55 1015 29.97 844 24.92 2.9 37.2 54 -5.5 22.1
11:00 1015 29.97 844 24.92 3.1 37.5 53 -5.6 22
11:05 1015 29.97 844 24.92 3.2 37.7 52 -5.7 21.7
11:10 1015 29.97 844 24.92 3.2 37.8 48 -6.8 19.7
11:15 1015 29.97 844 24.92 3.6 38.4 40 -8.8 16.2
11:20 1014 29.94 843 24.89 4 39.1 37 -9.3 15.2
11:25 1014 29.94 843 24.89 4.5 40.1 36 -9.2 15.4
11:30 1014 29.94 843 24.89 4.6 40.4 35 -9.6 14.8
11:35 1014 29.94 843 24.89 4.7 40.5 34 -9.9 14.2
11:40 1015 29.97 844 24.92 4.7 40.5 38 -8.4 16.9
11:45 1015 29.97 844 24.92 4.9 40.7 34 -9.6 14.7
11:50 1015 29.97 844 24.92 4.8 40.6 37 -8.7 16.4
11:55 1015 29.97 844 24.92 4.6 40.3 37 -9 15.8
12:00 1015 29.97 844 24.92 4.7 40.5 38 -8.6 16.5
12:05 1015 29.97 844 24.92 4.9 40.8 36 -8.8 16.1
12:10 1015 29.97 844 24.92 5.1 41.1 34 -9.5 14.9
12:15 1015 29.97 844 24.92 5.3 41.5 35 -8.8 16.2
12:20 1015 29.97 844 24.92 5.4 41.7 35 -8.8 16.2
12:25 1015 29.97 844 24.92 5.3 41.6 34 -9.2 15.4
12:30 1015 29.97 845 24.95 5.1 41.3 35 -9.1 15.7
12:35 1015 29.97 845 24.95 5.1 41.1 37 -8.5 16.7
12:40 1016 30 845 24.95 5 41.1 38 -8 17.6
12:45 1016 30 845 24.95 5 41 38 -8.1 17.3
12:50 1016 30 845 24.95 5 40.9 38 -8.2 17.3
12:55 1016 30 845 24.95 5 41 36 -9 15.9
13:00 1016 30 845 24.95 5.1 41.1 38 -8 17.6
13:05 1016 30 845 24.95 5.1 41.3 37 -8.2 17.2
13:10 1016 30 845 24.95 5.3 41.6 37 -8.3 17
13:15 1016 30 845 24.95 5.4 41.8 35 -8.7 16.4
13:20 1016 30 845 24.95 5.5 41.8 37 -8.1 17.4
13:25 1016 30 845 24.95 5.4 41.8 36 -8.5 16.6
13:30 1016 30 845 24.95 5.5 41.8 35 -8.6 16.5
13:35 1016 30 845 24.95 5.4 41.7 35 -8.8 16.1
13:40 1016 30 845 24.95 5.4 41.7 36 -8.6 16.5
13:45 1016 30 845 24.95 5.4 41.8 35 -8.7 16.3
13:50 1016 30 845 24.95 5.5 41.9 34 -9.1 15.7
13:55 1016 30 845 24.95 5.5 42 35 -8.8 16.2
14:00 1016 30 845 24.95 5.6 42.1 35 -8.9 16
14:05 1016 30 845 24.95 5.7 42.3 34 -8.9 15.9
14:10 1016 30 845 24.95 5.8 42.4 34 -9 15.8
14:15 1016 30 845 24.95 5.9 42.6 33 -9.3 15.2
14:20 1016 30 845 24.95 6 42.8 32 -9.4 15.1
14:25 1016 30 845 24.95 6.2 43.2 33 -8.8 16.1
14:30 1016 30 845 24.95 6 42.8 33 -9.2 15.4
14:35 1016 30 845 24.95 5.7 42.2 33 -9.3 15.3
14:40 1016 30 845 24.95 5.7 42.3 33 -9.4 15.1
14:45 1016 30 845 24.95 5.9 42.7 32 -9.6 14.8
14:50 1016 30 845 24.95 6.4 43.5 32 -9 15.8
14:55 1016 30 845 24.95 6.2 43.2 32 -9.3 15.3
15:00 1016 30 845 24.95 6.3 43.4 31 -9.4 15.1
15:05 1016 30 845 24.95 6.6 43.9 31 -9.3 15.2
15:10 1016 30 845 24.95 6.8 44.2 31 -9.3 15.3
15:15 1016 30 845 24.95 7.2 45 30 -9.1 15.6
15:20 1016 30 845 24.95 7.3 45.1 31 -8.9 15.9
15:25 1016 30 845 24.95 7.3 45.1 31 -8.9 15.9
15:30 1016 30 845 24.95 7.2 45 30 -9.1 15.7
15:35 1016 30 845 24.95 7.2 45 31 -8.9 16
15:40 1016 30 845 24.95 7.5 45.5 29 -9.4 15.1
15:45 1016 30 845 24.95 7.3 45.1 29 -9.6 14.7
15:50 1016 30 845 24.95 7 44.6 30 -9.4 15.1
15:55 1016 30 845 24.95 6.9 44.5 28 -10.3 13.5
16:00 1016 30 846 24.98 7.4 45.3 28 -9.9 14.1
16:05 1016 30 846 24.98 7.6 45.7 28 -9.7 14.5
16:10 1016 30 846 24.98 7.6 45.6 29 -9.4 15.1
16:15 1016 30 846 24.98 7.5 45.5 29 -9.2 15.4
16:20 1017 30.03 846 24.98 7.5 45.6 29 -9.6 14.8
16:25 1017 30.03 846 24.98 7.8 46 25 -10.9 12.4
16:30 1017 30.03 846 24.98 7.7 45.9 26 -10.4 13.2
16:35 1017 30.03 846 24.98 7.5 45.5 26 -10.6 13
16:40 1017 30.03 846 24.98 7.7 45.8 27 -10.1 13.7
16:45 1017 30.03 846 24.98 7.6 45.7 27 -10.1 13.9
16:50 1017 30.03 846 24.98 8 46.4 26 -10.2 13.7
16:55 1017 30.03 846 24.98 7.9 46.2 26 -10.4 13.2
17:00 1017 30.03 846 24.98 7.7 45.8 26 -10.8 12.6
17:05 1017 30.03 846 24.98 7.6 45.7 26 -10.6 13
17:10 1017 30.03 846 24.98 7.6 45.6 26 -10.5 13
17:15 1017 30.03 846 24.98 7.6 45.6 26 -10.5 13
17:20 1017 30.03 846 24.98 7.6 45.7 27 -10.1 13.8
17:25 1017 30.03 847 25.01 7.7 45.8 27 -10.2 13.6
17:30 1017 30.03 847 25.01 7.8 46 27 -10.1 13.8
17:35 1017 30.03 847 25.01 7.8 46.1 28 -9.7 14.6
17:40 1018 30.06 847 25.01 7.9 46.2 27 -10 13.9
17:45 1018 30.06 847 25.01 7.6 45.8 27 -10.1 13.7
17:50 1018 30.06 847 25.01 7.5 45.5 27 -10.4 13.3
17:55 1018 30.06 847 25.01 7.7 45.8 27 -10.1 13.8
18:00 1018 30.06 847 25.01 7.7 45.8 27 -10.2 13.7
18:05 1018 30.06 847 25.01 7.6 45.6 27 -10.4 13.3
18:10 1018 30.06 847 25.01 7.4 45.4 27 -10.2 13.6
18:15 1018 30.06 847 25.01 7.4 45.2 27 -10.2 13.6
18:20 1018 30.06 847 25.01 7.3 45.2 28 -10.2 13.6
18:25 1018 30.06 848 25.04 7.3 45.1 28 -10.1 13.8
18:30 1018 30.06 848 25.04 7.1 44.7 29 -9.9 14.1
18:35 1018 30.06 848 25.04 6.8 44.2 29 -10.2 13.6
18:40 1018 30.06 848 25.04 6.9 44.5 29 -10 14
18:45 1018 30.06 848 25.04 6.8 44.2 30 -9.8 14.4
18:50 1018 30.06 848 25.04 6.5 43.8 30 -9.6 14.6
18:55 1018 30.06 848 25.04 6.4 43.5 31 -9.4 15
19:00 1019 30.09 848 25.04 6.1 43 32 -9.3 15.3
19:05 1019 30.09 848 25.04 5.8 42.5 33 -9.1 15.6
19:10 1018 30.06 848 25.04 5.6 42.1 34 -9.1 15.6
19:15 1018 30.06 848 25.04 5.5 41.9 34 -9 15.7
19:20 1019 30.09 848 25.04 5.3 41.6 35 -8.9 16
19:25 1019 30.09 848 25.04 5.2 41.3 36 -8.8 16.1
19:30 1019 30.09 848 25.04 5 41.1 36 -9 15.8
19:35 1019 30.09 848 25.04 4.4 39.9 41 -7.6 18.2
19:40 1019 30.09 848 25.04 3.8 38.8 41 -8.2 17.2
19:45 1019 30.09 848 25.04 4.2 39.5 38 -9 15.8
19:50 1019 30.09 848 25.04 4.5 40.1 37 -8.9 16
19:55 1019 30.09 848 25.04 4.6 40.3 37 -8.8 16.2
20:00 1019 30.09 848 25.04 4.6 40.2 37 -8.8 16.1
20:05 1019 30.09 848 25.04 4.7 40.4 37 -8.7 16.3
20:10 1019 30.09 848 25.04 4.5 40.1 38 -8.5 16.7
20:15 1019 30.09 848 25.04 4.3 39.7 39 -8.4 16.8
20:20 1019 30.09 848 25.04 4 39.2 42 -7.7 18.2
20:25 1019 30.09 848 25.04 3 37.5 45 -7.9 17.8
20:30 1019 30.09 848 25.04 3 37.3 44 -8.2 17.2
20:35 1019 30.09 848 25.04 3.1 37.5 43 -8.2 17.2
20:40 1019 30.09 848 25.04 3.2 37.7 43 -8.2 17.2
20:45 1019 30.09 848 25.04 3.4 38 42 -8.4 16.9
20:50 1019 30.09 848 25.04 3.5 38.3 43 -8.1 17.4
20:55 1019 30.09 848 25.04 3.3 37.9 43 -8.2 17.3
21:00 1019 30.09 848 25.04 3.3 37.9 42 -8.4 16.9
21:05 1019 30.09 848 25.04 3.4 38.1 42 -8.2 17.2
21:10 1019 30.09 848 25.04 3.3 37.9 43 -8 17.6
21:15 1019 30.09 848 25.04 3.1 37.6 44 -8.1 17.3
21:20 1019 30.09 848 25.04 2.9 37.2 45 -7.9 17.8
21:25 1019 30.09 849 25.07 2.5 36.4 46 -7.9 17.7
21:30 1019 30.09 849 25.07 2.2 35.9 48 -7.6 18.3
21:35 1019 30.09 849 25.07 1.8 35.2 50 -7.5 18.5
21:40 1019 30.09 849 25.07 1.5 34.7 51 -7.7 18.1
21:45 1019 30.09 849 25.07 1.5 34.7 51 -7.6 18.2
21:50 1019 30.09 848 25.04 1.6 34.9 50 -7.7 18.1
21:55 1019 30.09 848 25.04 1.7 35 49 -7.8 18
22:00 1019 30.09 848 25.04 2 35.5 48 -7.8 17.9
22:05 1019 30.09 848 25.04 2.1 35.8 49 -7.6 18.3
22:10 1019 30.09 848 25.04 2.1 35.7 48 -7.8 18
22:15 1019 30.09 848 25.04 1.9 35.5 48 -8 17.7
22:20 1019 30.09 849 25.07 1.8 35.2 48 -8 17.6
22:25 1019 30.09 848 25.04 1.4 34.6 50 -7.8 18
22:30 1019 30.09 848 25.04 1.1 34 51 -7.8 17.9
22:35 1019 30.09 848 25.04 1 33.9 51 -8 17.7
22:40 1019 30.09 848 25.04 1.1 33.9 50 -8.1 17.3
22:45 1019 30.09 848 25.04 1.2 34.2 49 -8.4 16.9
22:50 1019 30.09 848 25.04 1.4 34.5 49 -8.2 17.3
22:55 1019 30.09 848 25.04 1.2 34.1 51 -7.9 17.7
23:00 1019 30.09 848 25.04 0.6 33.1 53 -7.9 17.8
23:05 1019 30.09 848 25.04 0.4 32.8 53 -8.1 17.4
23:10 1019 30.09 848 25.04 0.4 32.8 52 -8.3 17.1
23:15 1019 30.09 848 25.04 0.6 33.1 51 -8.3 17
23:20 1019 30.09 848 25.04 0.4 32.7 53 -8.1 17.4
23:25 1019 30.09 848 25.04 0.4 32.7 53 -8 17.5
23:30 1019 30.09 848 25.04 0.5 32.9 54 -7.9 17.8
23:35 1019 30.09 848 25.04 0.4 32.7 55 -7.6 18.3
23:40 1019 30.09 848 25.04 0.4 32.8 53 -7.9 17.7
23:45 1019 30.09 848 25.04 0.8 33.4 48 -9 15.7
23:50 1019 30.09 848 25.04 1.2 34.1 47 -8.9 16
23:55 1019 30.09 848 25.04 1.2 34.1 49 -8.5 16.8
24:00 1019 30.09 848 25.04 0.8 33.4 49 -8.7 16.4